createdAt,value
2018-10-16T00:09:57.379Z,4.50
2018-10-16T00:12:25.355Z,2.90
2018-10-16T00:14:53.364Z,3.23
2018-10-16T00:17:21.364Z,3.20
2018-10-16T00:19:49.357Z,3.23
2018-10-16T00:41:03.111Z,3.63
2018-10-16T00:43:31.122Z,3.00
2018-10-16T00:45:59.110Z,2.70
2018-10-16T00:48:27.101Z,4.13
2018-10-16T01:09:40.822Z,3.33
2018-10-16T01:30:54.654Z,2.73
2018-10-16T01:33:22.662Z,2.90
2018-10-16T01:35:50.666Z,2.37
2018-10-16T01:38:18.645Z,3.00
2018-10-16T01:59:33.362Z,2.60
2018-10-16T02:20:47.478Z,3.37
2018-10-16T02:23:15.491Z,3.37
2018-10-16T02:25:43.559Z,2.80
2018-10-16T02:28:11.582Z,3.23
2018-10-16T02:49:25.667Z,2.90
2018-10-16T03:10:39.507Z,2.47
2018-10-16T03:13:07.500Z,3.00
2018-10-16T03:15:35.495Z,3.60
2018-10-16T03:18:03.495Z,2.83
2018-10-16T03:20:31.534Z,2.60
2018-10-16T03:22:59.503Z,3.97
2018-10-16T03:25:27.505Z,2.80
2018-10-16T03:27:55.506Z,2.30
2018-10-16T03:30:23.508Z,2.83
2018-10-16T03:32:51.498Z,2.40
2018-10-16T03:35:19.506Z,3.03
2018-10-16T03:37:47.490Z,2.23
2018-10-16T03:40:15.504Z,2.40
2018-10-16T03:42:43.484Z,2.23
2018-10-16T03:45:12.732Z,2.60
2018-10-16T03:47:41.305Z,2.13
2018-10-16T03:50:10.078Z,2.97
2018-10-16T03:52:38.490Z,2.40
2018-10-16T03:55:06.666Z,2.60
2018-10-16T03:57:34.670Z,2.30
2018-10-16T04:00:02.744Z,2.60
2018-10-16T04:02:30.744Z,2.93
2018-10-16T04:04:58.741Z,2.63
2018-10-16T04:07:26.834Z,3.23
2018-10-16T04:09:54.838Z,2.60
2018-10-16T04:12:22.851Z,2.40
2018-10-16T04:14:50.842Z,1.83
2018-10-16T04:17:18.852Z,2.53
2018-10-16T04:19:47.071Z,2.57
2018-10-16T04:22:15.051Z,2.00
2018-10-16T04:24:43.124Z,4.00
2018-10-16T04:27:11.122Z,2.40
2018-10-16T04:29:39.142Z,2.90
2018-10-16T04:32:07.270Z,2.90
2018-10-16T04:34:35.272Z,3.73
2018-10-16T04:37:03.275Z,3.10
2018-10-16T04:39:31.257Z,3.13
2018-10-16T04:41:59.342Z,2.50
2018-10-16T04:44:27.352Z,2.70
2018-10-16T04:46:55.362Z,5.20
2018-10-16T04:49:23.353Z,2.90
2018-10-16T04:51:51.350Z,3.03
2018-10-16T04:54:19.355Z,2.80
2018-10-16T04:56:47.352Z,5.60
2018-10-16T04:59:15.338Z,2.90
2018-10-16T05:01:43.390Z,2.80
2018-10-16T05:04:11.480Z,4.13
2018-10-16T05:06:39.424Z,4.13
2018-10-16T05:09:08.339Z,3.23
2018-10-16T05:11:41.594Z,3.60
2018-10-16T05:14:09.582Z,3.00
2018-10-16T05:16:37.565Z,3.17
2018-10-16T05:19:05.647Z,4.57
2018-10-16T05:21:33.686Z,3.87
2018-10-16T05:24:01.925Z,3.23
2018-10-16T05:26:29.902Z,2.80
2018-10-16T05:28:57.905Z,2.90
2018-10-16T05:31:26.223Z,2.97
2018-10-16T05:33:54.002Z,3.23
2018-10-16T05:36:22.033Z,3.13
2018-10-16T05:38:50.006Z,3.63
2018-10-16T05:41:18.062Z,6.50
2018-10-16T05:43:46.053Z,4.60
2018-10-16T05:46:14.055Z,4.90
2018-10-16T05:48:42.051Z,4.10
2018-10-16T05:51:10.140Z,3.37
2018-10-16T05:53:38.568Z,3.63
2018-10-16T05:56:07.316Z,3.80
2018-10-16T05:58:35.783Z,3.60
2018-10-16T06:01:03.860Z,3.63
2018-10-16T06:03:31.833Z,3.97
2018-10-16T06:05:59.924Z,3.33
2018-10-16T06:08:27.987Z,4.63
2018-10-16T06:10:56.223Z,4.70
2018-10-16T06:13:24.104Z,3.63
2018-10-16T06:15:53.046Z,3.63
2018-10-16T06:18:21.081Z,2.93
2018-10-16T06:39:35.027Z,8.47
2018-10-16T07:00:49.051Z,4.60
2018-10-16T07:03:17.046Z,4.30
2018-10-16T07:05:45.050Z,3.77
2018-10-16T07:08:13.055Z,5.40
2018-10-16T07:29:26.996Z,4.47
2018-10-16T07:50:40.752Z,4.43
2018-10-16T08:11:54.230Z,4.10
2018-10-16T08:14:22.228Z,4.50
2018-10-16T08:16:51.041Z,3.63
2018-10-16T08:19:19.013Z,4.20
2018-10-16T08:40:32.782Z,4.30
2018-10-16T08:43:20.306Z,3.87
2018-10-16T08:45:53.858Z,4.40
2018-10-16T08:48:27.317Z,5.50
2018-10-16T09:09:41.409Z,4.23
2018-10-16T09:30:55.540Z,5.93
2018-10-16T09:33:23.545Z,5.27
2018-10-16T09:35:51.538Z,4.10
2018-10-16T09:38:19.540Z,4.50
2018-10-16T09:59:32.721Z,4.30
2018-10-16T10:20:46.389Z,6.03
2018-10-16T10:23:14.448Z,5.30
2018-10-16T10:25:42.390Z,5.27
2018-10-16T10:28:10.371Z,5.40
2018-10-16T10:49:24.008Z,5.13
2018-10-16T11:13:44.943Z,4.50
2018-10-16T11:16:13.401Z,5.07
2018-10-16T11:18:41.402Z,4.50
2018-10-16T11:36:47.759Z,5.03
2018-10-16T11:39:15.829Z,4.73
2018-10-16T12:00:29.398Z,4.17
2018-10-16T12:02:57.385Z,5.67
2018-10-16T12:05:25.547Z,6.63
2018-10-16T12:26:40.039Z,4.30
2018-10-16T12:29:08.083Z,4.30
2018-10-16T12:50:22.278Z,3.80
2018-10-16T13:11:36.064Z,4.17
2018-10-16T13:14:04.167Z,3.97
2018-10-16T13:16:32.139Z,3.80
2018-10-16T13:19:00.149Z,4.03
2018-10-16T13:40:13.999Z,5.10
2018-10-16T13:42:42.072Z,3.93
2018-10-16T13:45:10.750Z,3.43
2018-10-16T13:47:38.770Z,3.83
2018-10-16T14:08:52.553Z,3.93
2018-10-16T14:47:39.323Z,9.53
2018-10-16T14:50:08.520Z,13.37
2018-10-16T14:52:36.952Z,11.40
2018-10-16T14:55:06.896Z,12.33
2018-10-16T14:57:35.744Z,9.97
2018-10-16T15:04:03.651Z,11.77
2018-10-16T15:06:31.870Z,13.17
2018-10-16T15:09:00.348Z,11.17
2018-10-16T15:11:28.665Z,9.73
2018-10-16T15:13:56.967Z,11.23
2018-10-16T15:16:25.173Z,10.83
2018-10-16T15:18:53.435Z,11.53
2018-10-16T15:21:22.031Z,11.23
2018-10-16T15:23:50.318Z,8.30
2018-10-16T15:26:18.541Z,8.90
2018-10-16T15:28:46.799Z,7.50
2018-10-16T15:31:15.104Z,8.40
2018-10-16T15:33:43.371Z,7.57
2018-10-16T15:36:11.681Z,8.43
2018-10-16T15:38:39.934Z,7.80
2018-10-16T15:41:08.445Z,9.87
2018-10-16T15:43:36.672Z,8.67
2018-10-16T15:46:05.175Z,9.97
2018-10-16T15:48:33.508Z,8.47
2018-10-16T15:51:02.881Z,9.90
2018-10-16T15:53:31.162Z,6.50
2018-10-16T15:55:59.534Z,6.17
2018-10-16T15:58:27.838Z,10.30
2018-10-16T16:00:56.165Z,8.17
2018-10-16T16:03:24.432Z,10.00
2018-10-16T16:05:52.712Z,7.53
2018-10-16T16:08:20.939Z,7.20
2018-10-16T16:10:49.274Z,9.37
2018-10-16T16:13:17.509Z,8.10
2018-10-16T16:15:45.767Z,6.27
2018-10-16T16:18:14.063Z,7.13
2018-10-16T16:20:42.356Z,6.53
2018-10-16T16:23:10.637Z,7.47
2018-10-16T16:25:39.469Z,6.13
2018-10-16T16:28:07.723Z,6.40
2018-10-16T16:30:35.987Z,7.63
2018-10-16T16:33:04.415Z,6.40
2018-10-16T16:35:32.731Z,5.77
2018-10-16T16:38:01.070Z,7.20
2018-10-16T16:40:29.395Z,5.90
2018-10-16T16:42:57.672Z,5.83
2018-10-16T16:45:25.952Z,7.73
2018-10-16T16:47:54.280Z,7.10
2018-10-16T16:50:23.641Z,5.67
2018-10-16T16:52:51.920Z,5.53
2018-10-16T16:55:20.179Z,7.20
2018-10-16T16:57:48.431Z,6.53
2018-10-16T17:00:16.744Z,5.50
2018-10-16T17:02:45.926Z,5.63
2018-10-16T17:05:14.576Z,6.33
2018-10-16T17:07:44.593Z,6.80
2018-10-16T17:10:12.951Z,6.43
2018-10-16T17:12:41.865Z,5.13
2018-10-16T17:15:12.886Z,5.43
2018-10-16T17:17:41.319Z,5.40
2018-10-16T17:20:10.666Z,6.10
2018-10-16T17:39:24.560Z,6.47
2018-10-16T17:58:37.955Z,5.23
2018-10-16T18:17:51.960Z,6.03
2018-10-16T18:37:06.188Z,5.83
2018-10-16T18:39:34.484Z,5.17
2018-10-16T18:58:47.888Z,4.87
2018-10-16T19:14:39.924Z,5.13
2018-10-16T19:17:08.224Z,7.40
2018-10-16T19:19:36.513Z,4.40
2018-10-16T19:22:04.874Z,5.37
2018-10-16T19:24:33.139Z,5.10
2018-10-16T19:27:01.435Z,4.97
2018-10-16T19:29:29.706Z,4.57
2018-10-16T19:31:58.049Z,5.73
2018-10-16T19:34:26.335Z,5.53
2018-10-16T19:36:54.699Z,6.13
2018-10-16T19:39:22.994Z,6.27
2018-10-16T19:41:54.265Z,5.73
2018-10-16T19:44:22.503Z,6.10
2018-10-16T19:46:50.763Z,4.93
2018-10-16T19:49:19.015Z,5.67
2018-10-16T19:51:49.070Z,5.67
2018-10-16T19:54:17.344Z,4.40
2018-10-16T19:56:45.621Z,5.17
2018-10-16T19:59:13.876Z,5.23
2018-10-16T20:01:42.221Z,5.00
2018-10-16T20:04:10.543Z,4.80
2018-10-16T20:06:38.835Z,5.37
2018-10-16T20:09:09.046Z,4.67
2018-10-16T20:11:37.358Z,4.73
2018-10-16T20:14:05.752Z,5.10
2018-10-16T20:16:33.923Z,5.10
2018-10-16T20:19:02.218Z,5.33
2018-10-16T20:38:15.355Z,4.97
2018-10-16T20:57:28.361Z,5.80
2018-10-16T20:59:56.843Z,6.33
2018-10-16T21:02:25.139Z,5.20
2018-10-16T21:04:53.575Z,5.00
2018-10-16T21:24:07.005Z,5.00
2018-10-16T21:26:35.287Z,4.97
2018-10-16T21:29:03.550Z,4.73
2018-10-16T21:48:17.202Z,5.33
2018-10-16T22:07:30.186Z,4.50
2018-10-16T22:09:59.047Z,4.77
2018-10-16T22:12:27.278Z,5.00
2018-10-16T22:14:55.534Z,5.40
2018-10-16T22:17:23.778Z,5.27
2018-10-16T22:19:52.029Z,4.97
2018-10-16T22:39:08.058Z,6.13
2018-10-16T22:58:21.601Z,4.70
2018-10-16T23:17:35.686Z,4.40
2018-10-16T23:20:03.953Z,4.20
2018-10-16T23:39:17.506Z,4.63
2018-10-16T23:58:31.029Z,4.53
